Hartford, Connecticut
Traffic Map
Current Weather Conditions
Hartford, Connecticut
Clear
Clear
29°
Feels Like: 29°
Wind Chill: 29° Ceiling: Unl
Heat Index: 29° Visibility: 10mi
Dew Point: 11° Wind: 0mph
Humidity: 47% Direction: ° ()
Pressure: 30.29in Gusts: 0mph
Raw Report DataKHFD 180053Z 00000KT 10SM CLR M02/M12 A3029 RMK AO2 SLP258 T10171117
Traffic Incident Summary
Active as of:
Severity:
Category:
InformationThere was an issue retrieving the traffic information for this location. Please try a different location or try again shortly.
Advertisements